Pagrindinis puslapis
METAR-TAF:

METAR-TAF

Oro uostai :

Kapris, Italija

platuma: 40-33N, ilguma: 014-12E, Aukštis: 160 m

Dabartinis oras

Ataskaita buvo paskelbta 56 minutes, ne 18:55 UTC
Ramus vėjas
Temperatūra 23°C
Drėgmė 78%
Slėgis 1017 hPa
Matomumas 10 km arba daugiau
nėra debesų žemiau 1500 m ir nėra kamuolinių lietaus debesų

METAR: LIQC 191855Z 00000KT CAVOK 23/19 Q1017 RMK SKC QUK / QUL / VIS MAR 20 KM VIS MIN 9999

Laikas: 21:51 (19:51 UTC)


TAF: trūkstamas

Orai ataskaitas ir orų prognozės (METAR, TAF).

turimą stotys yra geltonos ir raudonos taškus žemėlapyje.

Perkelti pele per norėdami pamatyti stoties vardą.

Tada spustelėkite, norėdami matyti oro stebėjimo ir prognozės.

Norėdami pakeisti žemėlapį: spustelėkite ant žalios mygtukų su juodo kryžiaus žemyn,; žalią mygtuką su brūkšneliu, jei norite nutolinti; arba žalių rodyklių gretimoms žemėlapius.


METAR-TAF: